sensor_id;sensor_type;location;lat;lon;timestamp;temperature;humidity
14471;DHT22;7321;50.802;4.336;2022-07-23T00:00:36;18.50;99.90
14471;DHT22;7321;50.802;4.336;2022-07-23T00:03:02;18.30;99.90
14471;DHT22;7321;50.802;4.336;2022-07-23T00:05:28;18.30;99.90
14471;DHT22;7321;50.802;4.336;2022-07-23T00:07:53;18.30;99.90
14471;DHT22;7321;50.802;4.336;2022-07-23T00:10:19;18.20;99.90
14471;DHT22;7321;50.802;4.336;2022-07-23T00:12:45;18.30;99.90
14471;DHT22;7321;50.802;4.336;2022-07-23T00:15:10;18.30;99.90
14471;DHT22;7321;50.802;4.336;2022-07-23T00:17:36;18.30;99.90
14471;DHT22;7321;50.802;4.336;2022-07-23T00:20:02;18.40;99.90
14471;DHT22;7321;50.802;4.336;2022-07-23T00:22:29;18.40;99.90
14471;DHT22;7321;50.802;4.336;2022-07-23T00:24:56;18.40;99.90
14471;DHT22;7321;50.802;4.336;2022-07-23T00:27:22;18.40;99.90
14471;DHT22;7321;50.802;4.336;2022-07-23T00:29:48;18.40;99.90
14471;DHT22;7321;50.802;4.336;2022-07-23T00:32:13;18.40;99.90
14471;DHT22;7321;50.802;4.336;2022-07-23T00:34:39;18.50;99.90
14471;DHT22;7321;50.802;4.336;2022-07-23T00:37:05;18.50;99.90
14471;DHT22;7321;50.802;4.336;2022-07-23T00:39:31;18.50;99.90
14471;DHT22;7321;50.802;4.336;2022-07-23T00:41:57;18.40;99.90
14471;DHT22;7321;50.802;4.336;2022-07-23T00:44:26;18.30;99.90
14471;DHT22;7321;50.802;4.336;2022-07-23T00:46:57;18.40;99.90
14471;DHT22;7321;50.802;4.336;2022-07-23T00:49:30;18.20;99.90
14471;DHT22;7321;50.802;4.336;2022-07-23T00:51:56;18.20;99.90
14471;DHT22;7321;50.802;4.336;2022-07-23T00:54:24;18.20;99.90
14471;DHT22;7321;50.802;4.336;2022-07-23T00:56:51;18.20;99.90
14471;DHT22;7321;50.802;4.336;2022-07-23T00:59:17;18.20;99.90
14471;DHT22;7321;50.802;4.336;2022-07-23T01:01:42;18.10;99.90
14471;DHT22;7321;50.802;4.336;2022-07-23T01:04:10;18.10;99.90
14471;DHT22;7321;50.802;4.336;2022-07-23T01:06:37;18.10;99.90
14471;DHT22;7321;50.802;4.336;2022-07-23T01:09:07;18.00;99.90
14471;DHT22;7321;50.802;4.336;2022-07-23T01:11:34;18.10;99.90
14471;DHT22;7321;50.802;4.336;2022-07-23T01:14:15;18.00;99.90
14471;DHT22;7321;50.802;4.336;2022-07-23T01:16:42;18.00;99.90
14471;DHT22;7321;50.802;4.336;2022-07-23T01:19:08;18.00;99.90
14471;DHT22;7321;50.802;4.336;2022-07-23T01:21:37;18.10;99.90
14471;DHT22;7321;50.802;4.336;2022-07-23T01:24:03;18.10;99.90
14471;DHT22;7321;50.802;4.336;2022-07-23T01:26:29;18.10;99.90
14471;DHT22;7321;50.802;4.336;2022-07-23T01:28:55;18.10;99.90
14471;DHT22;7321;50.802;4.336;2022-07-23T01:31:21;18.20;99.90
14471;DHT22;7321;50.802;4.336;2022-07-23T01:33:47;18.10;99.90
14471;DHT22;7321;50.802;4.336;2022-07-23T01:36:13;18.10;99.90
14471;DHT22;7321;50.802;4.336;2022-07-23T01:38:39;18.00;99.90
14471;DHT22;7321;50.802;4.336;2022-07-23T01:41:05;18.10;99.90
14471;DHT22;7321;50.802;4.336;2022-07-23T01:43:30;18.20;99.90
14471;DHT22;7321;50.802;4.336;2022-07-23T01:45:56;18.00;99.90
14471;DHT22;7321;50.802;4.336;2022-07-23T01:48:22;17.90;99.90
14471;DHT22;7321;50.802;4.336;2022-07-23T01:50:48;17.90;99.90
14471;DHT22;7321;50.802;4.336;2022-07-23T01:53:14;17.90;99.90
14471;DHT22;7321;50.802;4.336;2022-07-23T01:55:41;18.00;99.90
14471;DHT22;7321;50.802;4.336;2022-07-23T01:58:07;18.00;99.90
14471;DHT22;7321;50.802;4.336;2022-07-23T02:00:33;18.20;99.90
14471;DHT22;7321;50.802;4.336;2022-07-23T02:02:59;18.30;99.90
14471;DHT22;7321;50.802;4.336;2022-07-23T02:05:25;18.30;99.90
14471;DHT22;7321;50.802;4.336;2022-07-23T02:07:51;18.30;99.90
14471;DHT22;7321;50.802;4.336;2022-07-23T02:10:17;18.30;99.90
14471;DHT22;7321;50.802;4.336;2022-07-23T02:12:43;18.20;99.90
14471;DHT22;7321;50.802;4.336;2022-07-23T02:15:09;18.30;99.90
14471;DHT22;7321;50.802;4.336;2022-07-23T02:17:35;18.30;99.90
14471;DHT22;7321;50.802;4.336;2022-07-23T02:20:01;18.40;99.90
14471;DHT22;7321;50.802;4.336;2022-07-23T02:22:27;18.40;99.90
14471;DHT22;7321;50.802;4.336;2022-07-23T02:24:53;18.50;99.90
14471;DHT22;7321;50.802;4.336;2022-07-23T02:27:18;18.50;99.90
14471;DHT22;7321;50.802;4.336;2022-07-23T02:29:44;18.50;99.90
14471;DHT22;7321;50.802;4.336;2022-07-23T02:32:10;18.50;99.90
14471;DHT22;7321;50.802;4.336;2022-07-23T02:34:36;18.50;99.90
14471;DHT22;7321;50.802;4.336;2022-07-23T02:37:02;18.50;99.90
14471;DHT22;7321;50.802;4.336;2022-07-23T02:39:28;18.50;99.90
14471;DHT22;7321;50.802;4.336;2022-07-23T02:41:53;18.60;99.90
14471;DHT22;7321;50.802;4.336;2022-07-23T02:44:21;18.60;99.90
14471;DHT22;7321;50.802;4.336;2022-07-23T02:46:47;18.60;99.90
14471;DHT22;7321;50.802;4.336;2022-07-23T02:49:13;18.50;99.90
14471;DHT22;7321;50.802;4.336;2022-07-23T02:51:38;18.50;99.90
14471;DHT22;7321;50.802;4.336;2022-07-23T02:54:04;18.50;99.90
14471;DHT22;7321;50.802;4.336;2022-07-23T02:56:30;18.50;99.90
14471;DHT22;7321;50.802;4.336;2022-07-23T02:58:56;18.50;99.90
14471;DHT22;7321;50.802;4.336;2022-07-23T03:01:21;18.50;99.90
14471;DHT22;7321;50.802;4.336;2022-07-23T03:03:47;18.50;99.90
14471;DHT22;7321;50.802;4.336;2022-07-23T03:06:13;18.50;99.90
14471;DHT22;7321;50.802;4.336;2022-07-23T03:08:39;18.50;99.90
14471;DHT22;7321;50.802;4.336;2022-07-23T03:11:05;18.50;99.90
14471;DHT22;7321;50.802;4.336;2022-07-23T03:13:37;18.50;99.90
14471;DHT22;7321;50.802;4.336;2022-07-23T03:16:03;18.40;99.90
14471;DHT22;7321;50.802;4.336;2022-07-23T03:18:28;18.30;99.90
14471;DHT22;7321;50.802;4.336;2022-07-23T03:20:54;18.20;99.90
14471;DHT22;7321;50.802;4.336;2022-07-23T03:23:20;18.10;99.90
14471;DHT22;7321;50.802;4.336;2022-07-23T03:25:46;18.20;99.90
14471;DHT22;7321;50.802;4.336;2022-07-23T03:28:15;18.20;99.90
14471;DHT22;7321;50.802;4.336;2022-07-23T03:30:42;18.20;99.90
14471;DHT22;7321;50.802;4.336;2022-07-23T03:33:08;18.20;99.90
14471;DHT22;7321;50.802;4.336;2022-07-23T03:35:34;18.20;99.90
14471;DHT22;7321;50.802;4.336;2022-07-23T03:38:00;18.20;99.90
14471;DHT22;7321;50.802;4.336;2022-07-23T03:40:26;18.20;99.90
14471;DHT22;7321;50.802;4.336;2022-07-23T03:42:51;18.20;99.90
14471;DHT22;7321;50.802;4.336;2022-07-23T03:45:17;18.20;99.90
14471;DHT22;7321;50.802;4.336;2022-07-23T03:47:43;18.10;99.90
14471;DHT22;7321;50.802;4.336;2022-07-23T03:50:10;18.10;99.90
14471;DHT22;7321;50.802;4.336;2022-07-23T03:52:36;18.20;99.90
14471;DHT22;7321;50.802;4.336;2022-07-23T03:55:02;18.20;99.90
14471;DHT22;7321;50.802;4.336;2022-07-23T03:57:28;18.20;99.90
14471;DHT22;7321;50.802;4.336;2022-07-23T03:59:54;18.20;99.90
14471;DHT22;7321;50.802;4.336;2022-07-23T04:02:20;18.20;99.90
14471;DHT22;7321;50.802;4.336;2022-07-23T04:04:46;18.20;99.90
14471;DHT22;7321;50.802;4.336;2022-07-23T04:07:12;18.40;99.90
14471;DHT22;7321;50.802;4.336;2022-07-23T04:09:38;18.40;99.90
14471;DHT22;7321;50.802;4.336;2022-07-23T04:12:06;18.50;99.90
14471;DHT22;7321;50.802;4.336;2022-07-23T04:14:33;18.50;99.90
14471;DHT22;7321;50.802;4.336;2022-07-23T04:16:59;18.60;99.90
14471;DHT22;7321;50.802;4.336;2022-07-23T04:19:25;18.60;99.90
14471;DHT22;7321;50.802;4.336;2022-07-23T04:21:51;18.50;99.90
14471;DHT22;7321;50.802;4.336;2022-07-23T04:24:17;18.50;99.90
14471;DHT22;7321;50.802;4.336;2022-07-23T04:26:43;18.50;99.90
14471;DHT22;7321;50.802;4.336;2022-07-23T04:29:09;18.40;99.90
14471;DHT22;7321;50.802;4.336;2022-07-23T04:31:35;18.50;99.90
14471;DHT22;7321;50.802;4.336;2022-07-23T04:34:01;18.50;99.90
14471;DHT22;7321;50.802;4.336;2022-07-23T04:36:26;18.60;99.90
14471;DHT22;7321;50.802;4.336;2022-07-23T04:38:52;18.60;99.90
14471;DHT22;7321;50.802;4.336;2022-07-23T04:41:18;18.80;99.90
14471;DHT22;7321;50.802;4.336;2022-07-23T04:43:44;18.90;99.90
14471;DHT22;7321;50.802;4.336;2022-07-23T04:46:09;18.80;99.90
14471;DHT22;7321;50.802;4.336;2022-07-23T04:48:36;18.90;99.90
14471;DHT22;7321;50.802;4.336;2022-07-23T04:51:02;18.80;99.90
14471;DHT22;7321;50.802;4.336;2022-07-23T04:53:29;18.80;99.90
14471;DHT22;7321;50.802;4.336;2022-07-23T04:55:54;18.90;99.90
14471;DHT22;7321;50.802;4.336;2022-07-23T04:58:20;18.80;99.90
14471;DHT22;7321;50.802;4.336;2022-07-23T05:00:46;18.90;99.90
14471;DHT22;7321;50.802;4.336;2022-07-23T05:03:12;19.10;99.90
14471;DHT22;7321;50.802;4.336;2022-07-23T05:05:38;19.10;99.90
14471;DHT22;7321;50.802;4.336;2022-07-23T05:08:04;19.30;99.90
14471;DHT22;7321;50.802;4.336;2022-07-23T05:10:30;19.40;99.90
14471;DHT22;7321;50.802;4.336;2022-07-23T05:12:55;19.60;99.90
14471;DHT22;7321;50.802;4.336;2022-07-23T05:15:21;19.70;99.90
14471;DHT22;7321;50.802;4.336;2022-07-23T05:17:47;19.70;99.90
14471;DHT22;7321;50.802;4.336;2022-07-23T05:20:15;19.80;99.90
14471;DHT22;7321;50.802;4.336;2022-07-23T05:22:41;19.80;99.90
14471;DHT22;7321;50.802;4.336;2022-07-23T05:25:08;19.90;99.90
14471;DHT22;7321;50.802;4.336;2022-07-23T05:27:34;20.00;99.90
14471;DHT22;7321;50.802;4.336;2022-07-23T05:29:59;20.00;99.90
14471;DHT22;7321;50.802;4.336;2022-07-23T05:32:25;20.10;99.90
14471;DHT22;7321;50.802;4.336;2022-07-23T05:34:51;20.00;99.90
14471;DHT22;7321;50.802;4.336;2022-07-23T05:37:17;20.00;99.90
14471;DHT22;7321;50.802;4.336;2022-07-23T05:39:43;20.00;99.90
14471;DHT22;7321;50.802;4.336;2022-07-23T05:42:08;20.00;99.90
14471;DHT22;7321;50.802;4.336;2022-07-23T05:44:34;20.10;99.90
14471;DHT22;7321;50.802;4.336;2022-07-23T05:47:00;20.00;99.90
14471;DHT22;7321;50.802;4.336;2022-07-23T05:49:26;19.90;99.90
14471;DHT22;7321;50.802;4.336;2022-07-23T05:51:51;19.80;99.90
14471;DHT22;7321;50.802;4.336;2022-07-23T05:54:17;19.90;99.90
14471;DHT22;7321;50.802;4.336;2022-07-23T05:56:43;20.10;99.90
14471;DHT22;7321;50.802;4.336;2022-07-23T05:59:09;20.20;99.90
14471;DHT22;7321;50.802;4.336;2022-07-23T06:01:34;20.10;99.90
14471;DHT22;7321;50.802;4.336;2022-07-23T06:04:00;20.10;99.90
14471;DHT22;7321;50.802;4.336;2022-07-23T06:06:26;20.00;99.90
14471;DHT22;7321;50.802;4.336;2022-07-23T06:08:51;20.10;99.90
14471;DHT22;7321;50.802;4.336;2022-07-23T06:11:17;20.30;99.90
14471;DHT22;7321;50.802;4.336;2022-07-23T06:13:46;20.40;99.90
14471;DHT22;7321;50.802;4.336;2022-07-23T06:16:12;20.40;99.90
14471;DHT22;7321;50.802;4.336;2022-07-23T06:18:37;20.50;99.90
14471;DHT22;7321;50.802;4.336;2022-07-23T06:21:03;20.50;99.90
14471;DHT22;7321;50.802;4.336;2022-07-23T06:23:29;20.50;99.90
14471;DHT22;7321;50.802;4.336;2022-07-23T06:25:54;20.60;99.90
14471;DHT22;7321;50.802;4.336;2022-07-23T06:28:20;20.60;99.90
14471;DHT22;7321;50.802;4.336;2022-07-23T06:30:46;20.70;99.90
14471;DHT22;7321;50.802;4.336;2022-07-23T06:33:12;20.70;99.90
14471;DHT22;7321;50.802;4.336;2022-07-23T06:35:37;20.80;99.90
14471;DHT22;7321;50.802;4.336;2022-07-23T06:38:03;21.00;99.90
14471;DHT22;7321;50.802;4.336;2022-07-23T06:40:29;21.10;99.90
14471;DHT22;7321;50.802;4.336;2022-07-23T06:42:55;21.20;99.90
14471;DHT22;7321;50.802;4.336;2022-07-23T06:45:20;21.20;99.90
14471;DHT22;7321;50.802;4.336;2022-07-23T06:47:46;21.30;99.90
14471;DHT22;7321;50.802;4.336;2022-07-23T06:50:12;21.30;99.90
14471;DHT22;7321;50.802;4.336;2022-07-23T06:52:38;21.20;99.90
14471;DHT22;7321;50.802;4.336;2022-07-23T06:55:04;21.20;99.90
14471;DHT22;7321;50.802;4.336;2022-07-23T06:57:30;21.30;99.90
14471;DHT22;7321;50.802;4.336;2022-07-23T06:59:55;21.30;99.90
14471;DHT22;7321;50.802;4.336;2022-07-23T07:02:21;21.30;99.90
14471;DHT22;7321;50.802;4.336;2022-07-23T07:04:47;21.50;99.90
14471;DHT22;7321;50.802;4.336;2022-07-23T07:07:13;21.40;99.90
14471;DHT22;7321;50.802;4.336;2022-07-23T07:09:38;21.60;99.90
14471;DHT22;7321;50.802;4.336;2022-07-23T07:12:05;21.60;99.90
14471;DHT22;7321;50.802;4.336;2022-07-23T07:14:30;21.70;99.90
14471;DHT22;7321;50.802;4.336;2022-07-23T07:16:56;21.70;99.90
14471;DHT22;7321;50.802;4.336;2022-07-23T07:19:22;21.70;99.90
14471;DHT22;7321;50.802;4.336;2022-07-23T07:21:48;21.90;99.90
14471;DHT22;7321;50.802;4.336;2022-07-23T07:24:13;22.10;99.90
14471;DHT22;7321;50.802;4.336;2022-07-23T07:26:39;22.20;99.90
14471;DHT22;7321;50.802;4.336;2022-07-23T07:29:05;22.40;99.90
14471;DHT22;7321;50.802;4.336;2022-07-23T07:31:31;22.50;99.90
14471;DHT22;7321;50.802;4.336;2022-07-23T07:33:58;22.60;99.90
14471;DHT22;7321;50.802;4.336;2022-07-23T07:36:24;22.80;99.90
14471;DHT22;7321;50.802;4.336;2022-07-23T07:38:49;22.90;99.90
14471;DHT22;7321;50.802;4.336;2022-07-23T07:41:15;23.00;99.90
14471;DHT22;7321;50.802;4.336;2022-07-23T07:43:41;23.10;99.90
14471;DHT22;7321;50.802;4.336;2022-07-23T07:46:07;23.30;99.90
14471;DHT22;7321;50.802;4.336;2022-07-23T07:48:38;23.50;99.90
14471;DHT22;7321;50.802;4.336;2022-07-23T07:51:04;23.50;99.90
14471;DHT22;7321;50.802;4.336;2022-07-23T07:53:30;23.50;99.90
14471;DHT22;7321;50.802;4.336;2022-07-23T07:55:56;23.70;99.90
14471;DHT22;7321;50.802;4.336;2022-07-23T07:58:22;23.80;99.90
14471;DHT22;7321;50.802;4.336;2022-07-23T08:00:48;24.00;99.90
14471;DHT22;7321;50.802;4.336;2022-07-23T08:03:13;24.20;99.90
14471;DHT22;7321;50.802;4.336;2022-07-23T08:05:39;24.10;99.90
14471;DHT22;7321;50.802;4.336;2022-07-23T08:08:05;24.10;99.90
14471;DHT22;7321;50.802;4.336;2022-07-23T08:10:31;23.80;99.90
14471;DHT22;7321;50.802;4.336;2022-07-23T08:12:58;23.70;99.90
14471;DHT22;7321;50.802;4.336;2022-07-23T08:15:25;23.80;99.90
14471;DHT22;7321;50.802;4.336;2022-07-23T08:17:52;23.80;99.90
14471;DHT22;7321;50.802;4.336;2022-07-23T08:20:20;24.10;99.90
14471;DHT22;7321;50.802;4.336;2022-07-23T08:22:50;24.10;99.90
14471;DHT22;7321;50.802;4.336;2022-07-23T08:25:21;24.10;99.90
14471;DHT22;7321;50.802;4.336;2022-07-23T08:27:47;24.20;99.90
14471;DHT22;7321;50.802;4.336;2022-07-23T08:30:13;24.40;99.90
14471;DHT22;7321;50.802;4.336;2022-07-23T08:32:59;24.50;99.90
14471;DHT22;7321;50.802;4.336;2022-07-23T08:35:34;24.60;99.90
14471;DHT22;7321;50.802;4.336;2022-07-23T08:38:02;24.70;99.90
14471;DHT22;7321;50.802;4.336;2022-07-23T08:40:30;24.80;99.90
14471;DHT22;7321;50.802;4.336;2022-07-23T08:42:57;24.90;99.90
14471;DHT22;7321;50.802;4.336;2022-07-23T08:45:24;25.00;99.90
14471;DHT22;7321;50.802;4.336;2022-07-23T08:47:53;25.10;99.90
14471;DHT22;7321;50.802;4.336;2022-07-23T08:50:19;25.10;99.90
14471;DHT22;7321;50.802;4.336;2022-07-23T08:52:47;24.90;99.90
14471;DHT22;7321;50.802;4.336;2022-07-23T08:55:14;24.80;99.90
14471;DHT22;7321;50.802;4.336;2022-07-23T08:57:41;24.70;99.90
14471;DHT22;7321;50.802;4.336;2022-07-23T09:00:07;24.50;99.90
14471;DHT22;7321;50.802;4.336;2022-07-23T09:02:41;24.20;99.90
14471;DHT22;7321;50.802;4.336;2022-07-23T09:05:10;24.00;99.90
14471;DHT22;7321;50.802;4.336;2022-07-23T09:07:38;24.00;99.90
14471;DHT22;7321;50.802;4.336;2022-07-23T09:10:23;24.30;99.90
14471;DHT22;7321;50.802;4.336;2022-07-23T09:12:49;24.60;99.90
14471;DHT22;7321;50.802;4.336;2022-07-23T09:15:15;24.80;99.90
14471;DHT22;7321;50.802;4.336;2022-07-23T09:17:42;24.80;99.90
14471;DHT22;7321;50.802;4.336;2022-07-23T09:20:10;25.00;99.90
14471;DHT22;7321;50.802;4.336;2022-07-23T09:22:36;25.20;99.90
14471;DHT22;7321;50.802;4.336;2022-07-23T09:25:10;25.40;99.90
14471;DHT22;7321;50.802;4.336;2022-07-23T09:27:53;25.60;99.90
14471;DHT22;7321;50.802;4.336;2022-07-23T09:30:20;25.80;99.90
14471;DHT22;7321;50.802;4.336;2022-07-23T09:35:47;25.80;99.90
14471;DHT22;7321;50.802;4.336;2022-07-23T09:38:14;25.80;99.90
14471;DHT22;7321;50.802;4.336;2022-07-23T09:40:39;25.70;99.90
14471;DHT22;7321;50.802;4.336;2022-07-23T09:43:05;25.90;99.90
14471;DHT22;7321;50.802;4.336;2022-07-23T09:45:31;25.90;99.90
14471;DHT22;7321;50.802;4.336;2022-07-23T09:48:15;26.10;99.90
14471;DHT22;7321;50.802;4.336;2022-07-23T09:50:42;26.10;99.90
14471;DHT22;7321;50.802;4.336;2022-07-23T09:53:08;26.20;99.90
14471;DHT22;7321;50.802;4.336;2022-07-23T09:55:35;25.80;99.90
14471;DHT22;7321;50.802;4.336;2022-07-23T09:58:07;25.70;99.90
14471;DHT22;7321;50.802;4.336;2022-07-23T10:00:39;25.70;99.90
14471;DHT22;7321;50.802;4.336;2022-07-23T10:03:06;25.80;99.90
14471;DHT22;7321;50.802;4.336;2022-07-23T10:05:34;25.80;99.90
14471;DHT22;7321;50.802;4.336;2022-07-23T10:08:02;25.60;99.90
14471;DHT22;7321;50.802;4.336;2022-07-23T10:10:28;25.60;99.90
14471;DHT22;7321;50.802;4.336;2022-07-23T10:12:56;25.70;99.90
14471;DHT22;7321;50.802;4.336;2022-07-23T10:15:41;25.60;99.90
14471;DHT22;7321;50.802;4.336;2022-07-23T10:18:10;25.70;99.90
14471;DHT22;7321;50.802;4.336;2022-07-23T10:20:37;25.20;99.90
14471;DHT22;7321;50.802;4.336;2022-07-23T10:23:37;25.30;99.90
14471;DHT22;7321;50.802;4.336;2022-07-23T10:26:22;25.40;99.90
14471;DHT22;7321;50.802;4.336;2022-07-23T10:37:22;26.10;99.90
14471;DHT22;7321;50.802;4.336;2022-07-23T10:40:24;26.10;99.90
14471;DHT22;7321;50.802;4.336;2022-07-23T10:42:52;26.00;99.90
14471;DHT22;7321;50.802;4.336;2022-07-23T10:47:54;25.80;99.90
14471;DHT22;7321;50.802;4.336;2022-07-23T10:53:11;25.90;99.90
14471;DHT22;7321;50.802;4.336;2022-07-23T10:55:51;26.00;99.90
14471;DHT22;7321;50.802;4.336;2022-07-23T10:58:19;26.20;99.90
14471;DHT22;7321;50.802;4.336;2022-07-23T11:00:46;26.30;99.90
14471;DHT22;7321;50.802;4.336;2022-07-23T11:03:32;26.00;99.90
14471;DHT22;7321;50.802;4.336;2022-07-23T11:05:59;26.10;99.90
14471;DHT22;7321;50.802;4.336;2022-07-23T11:08:24;26.10;99.90
14471;DHT22;7321;50.802;4.336;2022-07-23T11:10:53;26.20;99.90
14471;DHT22;7321;50.802;4.336;2022-07-23T11:16:06;26.50;99.90
14471;DHT22;7321;50.802;4.336;2022-07-23T11:34:35;26.70;99.90
14471;DHT22;7321;50.802;4.336;2022-07-23T11:37:03;26.70;99.90
14471;DHT22;7321;50.802;4.336;2022-07-23T11:39:30;26.90;99.90
14471;DHT22;7321;50.802;4.336;2022-07-23T11:41:57;27.20;99.90
14471;DHT22;7321;50.802;4.336;2022-07-23T11:44:27;27.20;99.90
14471;DHT22;7321;50.802;4.336;2022-07-23T11:47:00;27.40;99.90
14471;DHT22;7321;50.802;4.336;2022-07-23T11:49:28;27.30;99.90
14471;DHT22;7321;50.802;4.336;2022-07-23T11:52:14;27.30;99.90
14471;DHT22;7321;50.802;4.336;2022-07-23T11:54:58;27.10;99.90
14471;DHT22;7321;50.802;4.336;2022-07-23T11:57:30;26.90;99.90
14471;DHT22;7321;50.802;4.336;2022-07-23T12:00:17;26.80;99.90
14471;DHT22;7321;50.802;4.336;2022-07-23T12:02:46;26.90;99.90
14471;DHT22;7321;50.802;4.336;2022-07-23T12:05:14;27.00;99.90
14471;DHT22;7321;50.802;4.336;2022-07-23T12:07:42;27.30;99.90
14471;DHT22;7321;50.802;4.336;2022-07-23T12:12:46;27.40;99.90
14471;DHT22;7321;50.802;4.336;2022-07-23T12:15:13;27.40;99.90
14471;DHT22;7321;50.802;4.336;2022-07-23T12:17:47;27.50;99.90
14471;DHT22;7321;50.802;4.336;2022-07-23T12:20:30;27.80;99.90
14471;DHT22;7321;50.802;4.336;2022-07-23T12:22:59;27.90;99.90
14471;DHT22;7321;50.802;4.336;2022-07-23T12:25:28;28.20;99.90
14471;DHT22;7321;50.802;4.336;2022-07-23T12:33:13;28.70;99.90
14471;DHT22;7321;50.802;4.336;2022-07-23T12:35:45;28.90;99.90
14471;DHT22;7321;50.802;4.336;2022-07-23T12:38:14;29.00;99.90
14471;DHT22;7321;50.802;4.336;2022-07-23T12:40:47;28.60;99.90
14471;DHT22;7321;50.802;4.336;2022-07-23T12:43:32;27.90;99.90
14471;DHT22;7321;50.802;4.336;2022-07-23T12:48:37;27.80;99.90
14471;DHT22;7321;50.802;4.336;2022-07-23T12:51:06;27.90;99.90
14471;DHT22;7321;50.802;4.336;2022-07-23T12:53:39;28.10;99.90
14471;DHT22;7321;50.802;4.336;2022-07-23T12:56:12;28.10;99.90
14471;DHT22;7321;50.802;4.336;2022-07-23T12:58:53;28.00;99.90
14471;DHT22;7321;50.802;4.336;2022-07-23T13:04:05;28.20;99.90
14471;DHT22;7321;50.802;4.336;2022-07-23T13:06:34;28.10;99.90
14471;DHT22;7321;50.802;4.336;2022-07-23T13:09:00;28.10;99.90
14471;DHT22;7321;50.802;4.336;2022-07-23T13:11:26;28.30;99.90
14471;DHT22;7321;50.802;4.336;2022-07-23T13:13:52;28.30;99.90
14471;DHT22;7321;50.802;4.336;2022-07-23T13:16:18;28.60;99.90
14471;DHT22;7321;50.802;4.336;2022-07-23T13:18:44;28.60;99.90
14471;DHT22;7321;50.802;4.336;2022-07-23T13:21:10;28.90;99.90
14471;DHT22;7321;50.802;4.336;2022-07-23T13:23:36;29.20;99.90
14471;DHT22;7321;50.802;4.336;2022-07-23T13:26:03;29.30;99.90
14471;DHT22;7321;50.802;4.336;2022-07-23T13:28:29;29.40;99.90
14471;DHT22;7321;50.802;4.336;2022-07-23T13:30:55;29.60;99.90
14471;DHT22;7321;50.802;4.336;2022-07-23T13:33:22;29.70;99.90
14471;DHT22;7321;50.802;4.336;2022-07-23T13:35:50;29.60;99.90
14471;DHT22;7321;50.802;4.336;2022-07-23T13:38:17;29.60;99.90
14471;DHT22;7321;50.802;4.336;2022-07-23T13:40:45;29.50;99.90
14471;DHT22;7321;50.802;4.336;2022-07-23T13:43:13;29.40;99.90
14471;DHT22;7321;50.802;4.336;2022-07-23T13:45:40;29.40;99.90
14471;DHT22;7321;50.802;4.336;2022-07-23T13:48:08;29.50;99.90
14471;DHT22;7321;50.802;4.336;2022-07-23T13:50:35;29.30;99.90
14471;DHT22;7321;50.802;4.336;2022-07-23T13:53:07;29.30;99.90
14471;DHT22;7321;50.802;4.336;2022-07-23T13:55:34;29.10;99.90
14471;DHT22;7321;50.802;4.336;2022-07-23T13:58:00;29.00;99.90
14471;DHT22;7321;50.802;4.336;2022-07-23T14:00:26;29.10;99.90
14471;DHT22;7321;50.802;4.336;2022-07-23T14:02:52;29.40;99.90
14471;DHT22;7321;50.802;4.336;2022-07-23T14:05:18;29.60;99.90
14471;DHT22;7321;50.802;4.336;2022-07-23T14:07:44;29.50;99.90
14471;DHT22;7321;50.802;4.336;2022-07-23T14:10:12;29.70;99.90
14471;DHT22;7321;50.802;4.336;2022-07-23T14:12:38;29.50;99.90
14471;DHT22;7321;50.802;4.336;2022-07-23T14:15:07;29.50;99.90
14471;DHT22;7321;50.802;4.336;2022-07-23T14:17:36;29.50;99.90
14471;DHT22;7321;50.802;4.336;2022-07-23T14:20:03;29.50;99.90
14471;DHT22;7321;50.802;4.336;2022-07-23T14:22:29;29.40;99.90
14471;DHT22;7321;50.802;4.336;2022-07-23T14:24:55;29.40;99.90
14471;DHT22;7321;50.802;4.336;2022-07-23T14:27:23;29.40;99.90
14471;DHT22;7321;50.802;4.336;2022-07-23T14:29:49;29.40;99.90
14471;DHT22;7321;50.802;4.336;2022-07-23T14:32:14;29.10;99.90
14471;DHT22;7321;50.802;4.336;2022-07-23T14:34:40;29.20;99.90
14471;DHT22;7321;50.802;4.336;2022-07-23T14:37:06;29.50;99.90
14471;DHT22;7321;50.802;4.336;2022-07-23T14:39:32;29.40;99.90
14471;DHT22;7321;50.802;4.336;2022-07-23T14:41:58;29.50;99.90
14471;DHT22;7321;50.802;4.336;2022-07-23T14:44:24;29.60;99.90
14471;DHT22;7321;50.802;4.336;2022-07-23T14:46:49;29.50;99.90
14471;DHT22;7321;50.802;4.336;2022-07-23T14:49:15;29.10;99.90
14471;DHT22;7321;50.802;4.336;2022-07-23T14:51:41;29.00;99.90
14471;DHT22;7321;50.802;4.336;2022-07-23T14:54:08;29.10;99.90
14471;DHT22;7321;50.802;4.336;2022-07-23T14:56:33;29.10;99.90
14471;DHT22;7321;50.802;4.336;2022-07-23T14:59:02;29.00;99.90
14471;DHT22;7321;50.802;4.336;2022-07-23T15:01:28;29.20;99.90
14471;DHT22;7321;50.802;4.336;2022-07-23T15:03:54;29.50;99.90
14471;DHT22;7321;50.802;4.336;2022-07-23T15:06:19;29.90;99.90
14471;DHT22;7321;50.802;4.336;2022-07-23T15:08:45;30.30;99.90
14471;DHT22;7321;50.802;4.336;2022-07-23T15:11:11;30.50;99.90
14471;DHT22;7321;50.802;4.336;2022-07-23T15:13:38;30.30;99.90
14471;DHT22;7321;50.802;4.336;2022-07-23T15:16:04;30.20;99.90
14471;DHT22;7321;50.802;4.336;2022-07-23T15:18:30;30.00;99.90
14471;DHT22;7321;50.802;4.336;2022-07-23T15:20:57;30.10;99.90
14471;DHT22;7321;50.802;4.336;2022-07-23T15:23:23;30.20;99.90
14471;DHT22;7321;50.802;4.336;2022-07-23T15:25:49;30.30;99.90
14471;DHT22;7321;50.802;4.336;2022-07-23T15:28:15;30.50;99.90
14471;DHT22;7321;50.802;4.336;2022-07-23T15:30:41;30.60;99.90
14471;DHT22;7321;50.802;4.336;2022-07-23T15:33:06;30.70;99.90
14471;DHT22;7321;50.802;4.336;2022-07-23T15:35:32;30.80;99.90
14471;DHT22;7321;50.802;4.336;2022-07-23T15:37:58;30.80;99.90
14471;DHT22;7321;50.802;4.336;2022-07-23T15:40:24;30.60;99.90
14471;DHT22;7321;50.802;4.336;2022-07-23T15:42:50;30.40;99.90
14471;DHT22;7321;50.802;4.336;2022-07-23T15:45:16;30.30;99.90
14471;DHT22;7321;50.802;4.336;2022-07-23T15:47:42;29.70;99.90
14471;DHT22;7321;50.802;4.336;2022-07-23T15:50:08;29.90;99.90
14471;DHT22;7321;50.802;4.336;2022-07-23T15:52:35;30.10;99.90
14471;DHT22;7321;50.802;4.336;2022-07-23T15:55:02;30.40;99.90
14471;DHT22;7321;50.802;4.336;2022-07-23T15:57:28;31.00;99.90
14471;DHT22;7321;50.802;4.336;2022-07-23T15:59:54;31.30;99.90
14471;DHT22;7321;50.802;4.336;2022-07-23T16:02:22;31.10;99.90
14471;DHT22;7321;50.802;4.336;2022-07-23T16:04:49;31.00;99.90
14471;DHT22;7321;50.802;4.336;2022-07-23T16:07:17;31.20;99.90
14471;DHT22;7321;50.802;4.336;2022-07-23T16:09:43;31.30;99.90
14471;DHT22;7321;50.802;4.336;2022-07-23T16:12:09;31.30;99.90
14471;DHT22;7321;50.802;4.336;2022-07-23T16:14:35;31.60;99.90
14471;DHT22;7321;50.802;4.336;2022-07-23T16:17:01;31.90;99.90
14471;DHT22;7321;50.802;4.336;2022-07-23T16:19:26;31.90;99.90
14471;DHT22;7321;50.802;4.336;2022-07-23T16:21:52;32.20;99.90
14471;DHT22;7321;50.802;4.336;2022-07-23T16:24:18;32.70;99.90
14471;DHT22;7321;50.802;4.336;2022-07-23T16:26:44;33.00;99.90
14471;DHT22;7321;50.802;4.336;2022-07-23T16:29:10;33.50;99.90
14471;DHT22;7321;50.802;4.336;2022-07-23T16:31:37;33.50;99.50
14471;DHT22;7321;50.802;4.336;2022-07-23T16:34:02;33.50;99.10